sensor_id;sensor_type;location;lat;lon;timestamp;pressure;altitude;pressure_sealevel;temperature;humidity
1776;BME280;885;42.626;23.200;2022-11-20T00:01:33;132662.03;;;16.31;83.54
1776;BME280;885;42.626;23.200;2022-11-20T00:04:00;132658.81;;;16.29;84.38
1776;BME280;885;42.626;23.200;2022-11-20T00:06:34;133050.69;;;16.39;83.64
1776;BME280;885;42.626;23.200;2022-11-20T00:09:04;132684.56;;;16.41;82.91
1776;BME280;885;42.626;23.200;2022-11-20T00:11:46;133072.22;;;16.49;82.58
1776;BME280;885;42.626;23.200;2022-11-20T00:14:12;133081.94;;;16.53;82.29
1776;BME280;885;42.626;23.200;2022-11-20T00:16:42;132689.94;;;16.44;82.42
1776;BME280;885;42.626;23.200;2022-11-20T00:19:09;132700.66;;;16.49;82.25
1776;BME280;885;42.626;23.200;2022-11-20T00:21:39;132706.06;;;16.51;82.36
1776;BME280;885;42.626;23.200;2022-11-20T00:24:13;132687.78;;;16.43;82.76
1776;BME280;885;42.626;23.200;2022-11-20T00:26:40;132307.72;;;16.39;82.92
1776;BME280;885;42.626;23.200;2022-11-20T00:29:12;132288.44;;;16.30;83.55
1776;BME280;885;42.626;23.200;2022-11-20T00:31:40;132679.19;;;16.39;83.34
1776;BME280;885;42.626;23.200;2022-11-20T00:34:09;132677.06;;;16.38;83.60
1776;BME280;885;42.626;23.200;2022-11-20T00:36:49;132290.59;;;16.31;84.53
1776;BME280;885;42.626;23.200;2022-11-20T00:39:16;132265.97;;;16.19;84.64
1776;BME280;885;42.626;23.200;2022-11-20T00:41:45;132269.22;;;16.21;84.69
1776;BME280;885;42.626;23.200;2022-11-20T00:44:17;132287.41;;;16.29;84.48
1776;BME280;885;42.626;23.200;2022-11-20T00:46:44;132273.50;;;16.23;85.29
1776;BME280;885;42.626;23.200;2022-11-20T00:49:18;132285.25;;;16.28;84.83
1776;BME280;885;42.626;23.200;2022-11-20T00:51:45;132276.69;;;16.24;85.12
1776;BME280;885;42.626;23.200;2022-11-20T00:54:12;132269.22;;;16.21;85.60
1776;BME280;885;42.626;23.200;2022-11-20T00:56:39;132254.22;;;16.14;86.08
1776;BME280;885;42.626;23.200;2022-11-20T00:59:08;132256.38;;;16.15;86.30
1776;BME280;885;42.626;23.200;2022-11-20T01:01:37;132256.38;;;16.15;86.18
1776;BME280;885;42.626;23.200;2022-11-20T01:04:06;131862.69;;;16.04;86.43
1776;BME280;885;42.626;23.200;2022-11-20T01:06:46;132237.13;;;16.06;87.03
1776;BME280;885;42.626;23.200;2022-11-20T01:09:14;132236.03;;;16.05;87.41
1776;BME280;885;42.626;23.200;2022-11-20T01:11:45;132256.38;;;16.15;85.74
1776;BME280;885;42.626;23.200;2022-11-20T01:14:48;131497.84;;;16.07;85.63
1776;BME280;885;42.626;23.200;2022-11-20T01:17:41;132271.34;;;16.22;85.30
1776;BME280;885;42.626;23.200;2022-11-20T01:20:12;131890.38;;;16.17;85.07
1776;BME280;885;42.626;23.200;2022-11-20T01:22:51;131515.94;;;16.16;84.40
1776;BME280;885;42.626;23.200;2022-11-20T01:25:24;131921.31;;;16.32;83.44
1776;BME280;885;42.626;23.200;2022-11-20T01:27:51;131916.03;;;16.29;83.06
1776;BME280;885;42.626;23.200;2022-11-20T01:30:18;131554.19;;;16.34;82.09
1776;BME280;885;42.626;23.200;2022-11-20T01:32:52;131543.59;;;16.29;82.77
1776;BME280;885;42.626;23.200;2022-11-20T01:35:21;131548.91;;;16.31;82.69
1776;BME280;885;42.626;23.200;2022-11-20T01:37:50;131936.28;;;16.39;82.57
1776;BME280;885;42.626;23.200;2022-11-20T01:40:24;131530.84;;;16.23;83.21
1776;BME280;885;42.626;23.200;2022-11-20T01:43:14;131539.34;;;16.27;82.90
1776;BME280;885;42.626;23.200;2022-11-20T01:46:14;131154.25;;;16.20;83.10
1776;BME280;885;42.626;23.200;2022-11-20T01:48:50;131146.84;;;16.17;83.11
1776;BME280;885;42.626;23.200;2022-11-20T01:51:24;131157.41;;;16.22;82.98
1776;BME280;885;42.626;23.200;2022-11-20T01:54:03;131161.66;;;16.24;83.25
1776;BME280;885;42.626;23.200;2022-11-20T01:56:40;131154.25;;;16.20;82.95
1776;BME280;885;42.626;23.200;2022-11-20T01:59:09;130779.88;;;16.19;82.44
1776;BME280;885;42.626;23.200;2022-11-20T02:02:00;131168.03;;;16.27;82.36
1776;BME280;885;42.626;23.200;2022-11-20T02:04:32;130389.69;;;16.10;82.62
1776;BME280;885;42.626;23.200;2022-11-20T02:07:01;130777.72;;;16.18;82.46
1776;BME280;885;42.626;23.200;2022-11-20T02:09:40;130397.06;;;16.13;82.07
1776;BME280;885;42.626;23.200;2022-11-20T02:12:16;130787.25;;;16.22;81.87
1776;BME280;885;42.626;23.200;2022-11-20T02:14:57;130783.03;;;16.20;82.35
1776;BME280;885;42.626;23.200;2022-11-20T02:17:27;130785.13;;;16.21;82.72
1776;BME280;885;42.626;23.200;2022-11-20T02:20:02;130770.34;;;16.14;83.29
1776;BME280;885;42.626;23.200;2022-11-20T02:22:35;130767.19;;;16.13;83.54
1776;BME280;885;42.626;23.200;2022-11-20T02:25:15;130389.69;;;16.10;83.77
1776;BME280;885;42.626;23.200;2022-11-20T02:27:42;130383.34;;;16.07;83.56
1776;BME280;885;42.626;23.200;2022-11-20T02:30:19;130375.97;;;16.03;83.80
1776;BME280;885;42.626;23.200;2022-11-20T02:32:48;130389.69;;;16.10;83.83
1776;BME280;885;42.626;23.200;2022-11-20T02:35:43;130756.59;;;16.08;84.61
1776;BME280;885;42.626;23.200;2022-11-20T02:38:13;130374.91;;;16.03;85.05
1776;BME280;885;42.626;23.200;2022-11-20T02:40:42;130364.41;;;15.98;84.96
1776;BME280;885;42.626;23.200;2022-11-20T02:43:18;130743.91;;;16.02;85.67
1776;BME280;885;42.626;23.200;2022-11-20T02:45:45;130741.78;;;16.01;85.91
1776;BME280;885;42.626;23.200;2022-11-20T02:48:12;130739.69;;;16.00;86.46
1776;BME280;885;42.626;23.200;2022-11-20T03:02:29;131108.63;;;15.99;87.63
1776;BME280;885;42.626;23.200;2022-11-20T03:04:56;130718.56;;;15.89;87.90
1776;BME280;885;42.626;23.200;2022-11-20T03:07:23;131090.63;;;15.90;88.25
1776;BME280;885;42.626;23.200;2022-11-20T03:09:49;130314.84;;;15.74;88.74
1776;BME280;885;42.626;23.200;2022-11-20T03:12:16;130707.97;;;15.84;88.54
1776;BME280;885;42.626;23.200;2022-11-20T03:14:43;130691.06;;;15.76;89.52
1776;BME280;885;42.626;23.200;2022-11-20T03:17:10;131075.81;;;15.83;88.79
1776;BME280;885;42.626;23.200;2022-11-20T03:19:38;130703.72;;;15.82;88.91
1776;BME280;885;42.626;23.200;2022-11-20T03:22:05;130308.50;;;15.71;89.50
1776;BME280;885;42.626;23.200;2022-11-20T03:24:32;130299.06;;;15.66;89.23
1776;BME280;885;42.626;23.200;2022-11-20T03:26:59;130307.50;;;15.70;88.85
1776;BME280;885;42.626;23.200;2022-11-20T03:29:26;130315.91;;;15.74;88.35
1776;BME280;885;42.626;23.200;2022-11-20T03:31:52;130312.78;;;15.73;88.11
1776;BME280;885;42.626;23.200;2022-11-20T03:34:19;130323.28;;;15.78;88.94
1776;BME280;885;42.626;23.200;2022-11-20T03:36:47;130311.72;;;15.72;88.42
1776;BME280;885;42.626;23.200;2022-11-20T03:39:14;129921.91;;;15.63;89.03
1776;BME280;885;42.626;23.200;2022-11-20T03:41:41;130306.44;;;15.70;89.09
1776;BME280;885;42.626;23.200;2022-11-20T03:44:10;129926.13;;;15.65;88.31
1776;BME280;885;42.626;23.200;2022-11-20T03:46:38;129921.91;;;15.63;89.12
1776;BME280;885;42.626;23.200;2022-11-20T03:49:06;129917.72;;;15.61;89.27
1776;BME280;885;42.626;23.200;2022-11-20T03:51:35;129517.63;;;15.47;90.12
1776;BME280;885;42.626;23.200;2022-11-20T03:54:05;129910.38;;;15.58;89.67
1776;BME280;885;42.626;23.200;2022-11-20T03:56:34;129908.25;;;15.57;89.69
1776;BME280;885;42.626;23.200;2022-11-20T03:59:01;129518.69;;;15.48;90.26
1776;BME280;885;42.626;23.200;2022-11-20T04:01:30;129513.44;;;15.45;90.26
1776;BME280;885;42.626;23.200;2022-11-20T04:03:57;129503.97;;;15.41;90.71
1776;BME280;885;42.626;23.200;2022-11-20T04:06:26;129509.25;;;15.43;89.97
1776;BME280;885;42.626;23.200;2022-11-20T04:08:54;129142.81;;;15.45;89.13
1776;BME280;885;42.626;23.200;2022-11-20T04:11:23;129151.16;;;15.49;89.09
1776;BME280;885;42.626;23.200;2022-11-20T04:13:52;129538.56;;;15.57;88.28
1776;BME280;885;42.626;23.200;2022-11-20T04:16:20;129528.09;;;15.52;88.60
1776;BME280;885;42.626;23.200;2022-11-20T04:18:51;129141.75;;;15.45;88.63
1776;BME280;885;42.626;23.200;2022-11-20T04:21:18;129157.41;;;15.52;87.96
1776;BME280;885;42.626;23.200;2022-11-20T04:23:45;129538.56;;;15.57;87.83
1776;BME280;885;42.626;23.200;2022-11-20T04:26:12;129542.75;;;15.59;88.20
1776;BME280;885;42.626;23.200;2022-11-20T04:28:40;129140.72;;;15.44;88.73
1776;BME280;885;42.626;23.200;2022-11-20T04:31:08;129529.16;;;15.53;89.36
1776;BME280;885;42.626;23.200;2022-11-20T04:33:36;129134.44;;;15.41;89.72
1776;BME280;885;42.626;23.200;2022-11-20T04:36:06;129514.50;;;15.46;89.83
1776;BME280;885;42.626;23.200;2022-11-20T04:38:33;129131.28;;;15.40;90.05
1776;BME280;885;42.626;23.200;2022-11-20T04:41:02;129119.78;;;15.34;90.66
1776;BME280;885;42.626;23.200;2022-11-20T04:43:29;129126.09;;;15.37;90.87
1776;BME280;885;42.626;23.200;2022-11-20T04:45:58;129506.06;;;15.42;90.96
1776;BME280;885;42.626;23.200;2022-11-20T04:48:26;129492.47;;;15.35;91.06
1776;BME280;885;42.626;23.200;2022-11-20T04:50:53;129104.16;;;15.27;91.99
1776;BME280;885;42.626;23.200;2022-11-20T04:53:21;129487.22;;;15.33;91.79
1776;BME280;885;42.626;23.200;2022-11-20T04:55:48;129474.66;;;15.27;93.20
1776;BME280;885;42.626;23.200;2022-11-20T04:58:16;129463.13;;;15.21;93.50
1776;BME280;885;42.626;23.200;2022-11-20T05:00:43;129454.75;;;15.17;93.72
1776;BME280;885;42.626;23.200;2022-11-20T05:03:11;129070.72;;;15.10;94.42
1776;BME280;885;42.626;23.200;2022-11-20T05:05:38;129048.78;;;15.00;95.00
1776;BME280;885;42.626;23.200;2022-11-20T05:08:04;129423.31;;;15.02;95.78
1776;BME280;885;42.626;23.200;2022-11-20T05:10:31;129030.03;;;14.91;96.92
1776;BME280;885;42.626;23.200;2022-11-20T05:12:58;129406.56;;;14.94;96.90
1776;BME280;885;42.626;23.200;2022-11-20T05:15:25;129394.00;;;14.88;98.16
1776;BME280;885;42.626;23.200;2022-11-20T05:17:52;129376.22;;;14.79;98.34
1776;BME280;885;42.626;23.200;2022-11-20T05:20:21;129380.41;;;14.81;98.29
1776;BME280;885;42.626;23.200;2022-11-20T05:22:47;129768.53;;;14.90;97.38
1776;BME280;885;42.626;23.200;2022-11-20T05:25:14;129770.63;;;14.91;97.58
1776;BME280;885;42.626;23.200;2022-11-20T05:27:41;129772.72;;;14.92;97.37
1776;BME280;885;42.626;23.200;2022-11-20T05:30:09;128993.47;;;14.73;97.76
1776;BME280;885;42.626;23.200;2022-11-20T05:32:36;129369.97;;;14.76;97.75
1776;BME280;885;42.626;23.200;2022-11-20T05:35:03;129768.53;;;14.90;97.06
1776;BME280;885;42.626;23.200;2022-11-20T05:37:32;130164.13;;;15.02;96.53
1776;BME280;885;42.626;23.200;2022-11-20T05:39:59;129379.34;;;14.81;96.58
1776;BME280;885;42.626;23.200;2022-11-20T05:42:25;130168.34;;;15.04;94.96
1776;BME280;885;42.626;23.200;2022-11-20T05:44:59;130188.38;;;15.13;93.74
1776;BME280;885;42.626;23.200;2022-11-20T05:47:26;130210.50;;;15.24;92.79
1776;BME280;885;42.626;23.200;2022-11-20T05:49:53;130587.44;;;15.27;93.36
1776;BME280;885;42.626;23.200;2022-11-20T05:52:20;129783.25;;;14.97;95.38
1776;BME280;885;42.626;23.200;2022-11-20T05:54:48;130170.47;;;15.05;94.77
1776;BME280;885;42.626;23.200;2022-11-20T05:57:15;130164.13;;;15.02;95.43
1776;BME280;885;42.626;23.200;2022-11-20T05:59:42;129787.44;;;14.99;95.52
1776;BME280;885;42.626;23.200;2022-11-20T06:02:09;130182.06;;;15.10;93.58
1776;BME280;885;42.626;23.200;2022-11-20T06:04:36;129802.13;;;15.06;94.33
1776;BME280;885;42.626;23.200;2022-11-20T06:07:04;130572.66;;;15.20;93.85
1776;BME280;885;42.626;23.200;2022-11-20T06:09:31;130189.44;;;15.14;93.87
1776;BME280;885;42.626;23.200;2022-11-20T06:11:59;130191.53;;;15.15;93.63
1776;BME280;885;42.626;23.200;2022-11-20T06:14:26;130185.25;;;15.12;94.28
1776;BME280;885;42.626;23.200;2022-11-20T06:16:53;130575.81;;;15.22;93.91
1776;BME280;885;42.626;23.200;2022-11-20T06:19:20;130584.28;;;15.26;93.42
1776;BME280;885;42.626;23.200;2022-11-20T06:21:47;130963.38;;;15.30;93.82
1776;BME280;885;42.626;23.200;2022-11-20T06:24:15;130978.22;;;15.37;92.93
1776;BME280;885;42.626;23.200;2022-11-20T06:26:42;130975.06;;;15.35;93.62
1776;BME280;885;42.626;23.200;2022-11-20T06:29:10;130974.00;;;15.35;93.54
1776;BME280;885;42.626;23.200;2022-11-20T06:31:37;131347.91;;;15.36;94.00
1776;BME280;885;42.626;23.200;2022-11-20T06:34:04;130584.28;;;15.26;93.81
1776;BME280;885;42.626;23.200;2022-11-20T06:36:32;130576.88;;;15.22;93.98
1776;BME280;885;42.626;23.200;2022-11-20T06:39:00;130937.97;;;15.18;95.07
1776;BME280;885;42.626;23.200;2022-11-20T06:41:27;131331.97;;;15.29;94.65
1776;BME280;885;42.626;23.200;2022-11-20T06:43:54;130580.03;;;15.24;93.26
1776;BME280;885;42.626;23.200;2022-11-20T06:46:22;131369.19;;;15.46;92.87
1776;BME280;885;42.626;23.200;2022-11-20T06:48:49;130984.56;;;15.40;92.55
1776;BME280;885;42.626;23.200;2022-11-20T06:51:17;130977.16;;;15.36;93.04
1776;BME280;885;42.626;23.200;2022-11-20T06:53:44;131364.94;;;15.44;92.25
1776;BME280;885;42.626;23.200;2022-11-20T06:56:11;130970.84;;;15.33;93.34
1776;BME280;885;42.626;23.200;2022-11-20T06:58:37;131746.44;;;15.49;93.62
1776;BME280;885;42.626;23.200;2022-11-20T07:01:06;131752.81;;;15.52;94.31
1776;BME280;885;42.626;23.200;2022-11-20T07:03:34;131343.66;;;15.34;95.56
1776;BME280;885;42.626;23.200;2022-11-20T07:06:04;131724.03;;;15.39;95.72
1776;BME280;885;42.626;23.200;2022-11-20T07:08:31;130939.03;;;15.18;95.58
1776;BME280;885;42.626;23.200;2022-11-20T07:10:59;130936.91;;;15.17;96.63
1776;BME280;885;42.626;23.200;2022-11-20T07:13:28;130922.09;;;15.10;97.95
1776;BME280;885;42.626;23.200;2022-11-20T07:15:59;130535.66;;;15.02;97.90
1776;BME280;885;42.626;23.200;2022-11-20T07:18:26;130904.06;;;15.01;98.74
1776;BME280;885;42.626;23.200;2022-11-20T07:20:54;131294.75;;;15.11;99.24
1776;BME280;885;42.626;23.200;2022-11-20T07:23:21;131286.28;;;15.07;99.02
1776;BME280;885;42.626;23.200;2022-11-20T07:25:48;131681.34;;;15.19;98.39
1776;BME280;885;42.626;23.200;2022-11-20T07:28:15;131659.00;;;15.08;99.58
1776;BME280;885;42.626;23.200;2022-11-20T07:30:42;131272.44;;;15.00;99.19
1776;BME280;885;42.626;23.200;2022-11-20T07:33:08;131284.13;;;15.06;98.40
1776;BME280;885;42.626;23.200;2022-11-20T07:35:35;130909.34;;;15.04;97.68
1776;BME280;885;42.626;23.200;2022-11-20T07:38:03;130889.22;;;14.94;98.58
1776;BME280;885;42.626;23.200;2022-11-20T07:40:30;130900.84;;;15.00;97.13
1776;BME280;885;42.626;23.200;2022-11-20T07:42:57;130905.09;;;15.02;97.32
1776;BME280;885;42.626;23.200;2022-11-20T07:45:24;130543.06;;;15.06;96.13
1776;BME280;885;42.626;23.200;2022-11-20T07:47:51;130581.09;;;15.24;92.50
1776;BME280;885;42.626;23.200;2022-11-20T07:50:19;131367.09;;;15.45;92.51
1776;BME280;885;42.626;23.200;2022-11-20T07:52:46;131352.16;;;15.38;92.86
1776;BME280;885;42.626;23.200;2022-11-20T07:55:14;131351.09;;;15.38;93.39
1776;BME280;885;42.626;23.200;2022-11-20T07:57:41;131761.34;;;15.56;92.43
1776;BME280;885;42.626;23.200;2022-11-20T08:00:10;132134.44;;;15.57;93.47
1776;BME280;885;42.626;23.200;2022-11-20T08:02:37;131348.97;;;15.37;94.75
1776;BME280;885;42.626;23.200;2022-11-20T08:05:06;130953.84;;;15.25;94.73
1776;BME280;885;42.626;23.200;2022-11-20T08:07:36;131713.34;;;15.34;96.22
1776;BME280;885;42.626;23.200;2022-11-20T08:10:03;132095.91;;;15.39;97.14
1776;BME280;885;42.626;23.200;2022-11-20T08:12:31;133216.16;;;15.43;99.34
1776;BME280;885;42.626;23.200;2022-11-20T08:15:16;132412.09;;;15.13;100.00
1776;BME280;885;42.626;23.200;2022-11-20T08:17:43;132376.72;;;14.97;100.00
1776;BME280;885;42.626;23.200;2022-11-20T08:20:09;132738.75;;;14.93;100.00
1776;BME280;885;42.626;23.200;2022-11-20T08:22:36;133493.03;;;14.99;100.00
1776;BME280;885;42.626;23.200;2022-11-20T08:25:04;132318.84;;;14.70;100.00
1776;BME280;885;42.626;23.200;2022-11-20T08:27:33;132706.47;;;14.78;100.00
1776;BME280;885;42.626;23.200;2022-11-20T08:29:59;132687.13;;;14.69;100.00
1776;BME280;885;42.626;23.200;2022-11-20T08:32:26;133450.84;;;14.79;100.00
1776;BME280;885;42.626;23.200;2022-11-20T08:34:53;133443.28;;;14.76;100.00
1776;BME280;885;42.626;23.200;2022-11-20T08:37:20;133817.13;;;14.77;100.00
1776;BME280;885;42.626;23.200;2022-11-20T08:39:47;133366.53;;;14.40;100.00
1776;BME280;885;42.626;23.200;2022-11-20T08:42:13;133666.44;;;14.07;100.00
1776;BME280;885;42.626;23.200;2022-11-20T08:44:41;137006.13;;;14.10;100.00
1776;BME280;885;42.626;23.200;2022-11-20T08:47:09;140312.41;;;13.97;100.00
1776;BME280;885;42.626;23.200;2022-11-20T08:49:35;142467.88;;;13.67;100.00
1776;BME280;885;42.626;23.200;2022-11-20T08:52:02;146165.00;;;13.62;100.00
1776;BME280;885;42.626;23.200;2022-11-20T08:54:29;150634.56;;;13.68;100.00
1776;BME280;885;42.626;23.200;2022-11-20T08:56:56;155121.22;;;13.79;100.00
1776;BME280;885;42.626;23.200;2022-11-20T08:59:23;157367.63;;;13.84;100.00
1776;BME280;885;42.626;23.200;2022-11-20T09:01:51;158874.72;;;13.91;100.00
1776;BME280;885;42.626;23.200;2022-11-20T09:04:18;160035.03;;;14.08;100.00
1776;BME280;885;42.626;23.200;2022-11-20T09:06:44;160373.59;;;13.95;100.00
1776;BME280;885;42.626;23.200;2022-11-20T09:09:11;161093.63;;;13.85;100.00
1776;BME280;885;42.626;23.200;2022-11-20T09:11:38;161048.88;;;13.68;100.00
1776;BME280;885;42.626;23.200;2022-11-20T09:14:05;161775.28;;;13.61;100.00
1776;BME280;885;42.626;23.200;2022-11-20T09:16:31;163257.22;;;13.58;100.00
1776;BME280;885;42.626;23.200;2022-11-20T09:19:00;163933.97;;;13.32;100.00
1776;BME280;885;42.626;23.200;2022-11-20T09:21:26;165438.94;;;13.38;100.00
1776;BME280;885;42.626;23.200;2022-11-20T09:23:53;165868.56;;;13.59;100.00
1776;BME280;885;42.626;23.200;2022-11-20T09:26:20;165114.94;;;13.56;100.00
1776;BME280;885;42.626;23.200;2022-11-20T09:28:47;165819.69;;;13.41;100.00
1776;BME280;885;42.626;23.200;2022-11-20T09:31:21;167329.78;;;13.48;100.00
1776;BME280;885;42.626;23.200;2022-11-20T09:33:49;167632.66;;;13.22;100.00
1776;BME280;885;42.626;23.200;2022-11-20T09:36:17;168793.81;;;13.38;100.00
1776;BME280;885;42.626;23.200;2022-11-20T09:38:44;168839.41;;;13.54;100.00
1776;BME280;885;42.626;23.200;2022-11-20T09:41:28;168835.28;;;13.53;100.00
1776;BME280;885;42.626;23.200;2022-11-20T09:44:05;168896.06;;;13.75;100.00
1776;BME280;885;42.626;23.200;2022-11-20T09:46:40;168511.91;;;13.71;100.00
1776;BME280;885;42.626;23.200;2022-11-20T09:49:23;168569.84;;;13.92;100.00
1776;BME280;885;42.626;23.200;2022-11-20T09:51:59;168542.28;;;13.82;100.00
1776;BME280;885;42.626;23.200;2022-11-20T09:54:30;168553.31;;;13.86;100.00
1776;BME280;885;42.626;23.200;2022-11-20T09:56:59;168979.06;;;14.05;100.00
1776;BME280;885;42.626;23.200;2022-11-20T09:59:35;169026.03;;;14.22;100.00
1776;BME280;885;42.626;23.200;2022-11-20T10:02:15;168700.97;;;14.40;100.00
1776;BME280;885;42.626;23.200;2022-11-20T10:04:45;169107.69;;;14.52;100.00
1776;BME280;885;42.626;23.200;2022-11-20T10:07:19;168385.28;;;14.61;100.00
1776;BME280;885;42.626;23.200;2022-11-20T10:09:51;168383.91;;;14.61;100.00
1776;BME280;885;42.626;23.200;2022-11-20T10:12:25;168416.94;;;14.73;100.00
1776;BME280;885;42.626;23.200;2022-11-20T10:15:05;166829.69;;;14.39;100.00
1776;BME280;885;42.626;23.200;2022-11-20T10:17:53;166847.44;;;14.45;100.00
1776;BME280;885;42.626;23.200;2022-11-20T10:20:28;166807.88;;;14.30;100.00
1776;BME280;885;42.626;23.200;2022-11-20T10:23:15;166848.75;;;14.46;100.00
1776;BME280;885;42.626;23.200;2022-11-20T10:25:54;167204.38;;;14.39;100.00
1776;BME280;885;42.626;23.200;2022-11-20T10:28:34;167621.66;;;14.55;100.00
1776;BME280;885;42.626;23.200;2022-11-20T10:31:09;167927.91;;;14.30;100.00
1776;BME280;885;42.626;23.200;2022-11-20T10:33:40;168326.06;;;14.40;100.00
1776;BME280;885;42.626;23.200;2022-11-20T10:36:14;168630.53;;;14.14;100.00
1776;BME280;885;42.626;23.200;2022-11-20T10:38:47;169037.09;;;14.26;100.00
1776;BME280;885;42.626;23.200;2022-11-20T10:41:19;168981.97;;;14.05;100.00
1776;BME280;885;42.626;23.200;2022-11-20T10:44:01;168994.38;;;14.10;100.00
1776;BME280;885;42.626;23.200;2022-11-20T10:46:35;168937.69;;;13.89;100.00
1776;BME280;885;42.626;23.200;2022-11-20T10:49:12;168958.47;;;13.97;100.00
1776;BME280;885;42.626;23.200;2022-11-20T10:51:47;168943.22;;;13.91;100.00
1776;BME280;885;42.626;23.200;2022-11-20T10:54:24;168976.38;;;14.03;100.00
1776;BME280;885;42.626;23.200;2022-11-20T10:57:00;168993.03;;;14.09;100.00
1776;BME280;885;42.626;23.200;2022-11-20T10:59:41;168940.47;;;13.90;100.00
1776;BME280;885;42.626;23.200;2022-11-20T11:02:18;168650.16;;;12.85;100.00
1776;BME280;885;42.626;23.200;2022-11-20T11:04:46;167731.69;;;12.22;100.00
1776;BME280;885;42.626;23.200;2022-11-20T11:07:16;166153.63;;;11.89;100.00
1776;BME280;885;42.626;23.200;2022-11-20T11:09:47;165407.41;;;11.88;100.00
1776;BME280;885;42.626;23.200;2022-11-20T11:12:15;165758.78;;;11.80;100.00
1776;BME280;885;42.626;23.200;2022-11-20T11:14:43;165731.63;;;11.70;100.00
1776;BME280;885;42.626;23.200;2022-11-20T11:17:20;165399.31;;;11.85;100.00
1776;BME280;885;42.626;23.200;2022-11-20T11:19:58;165723.44;;;11.67;100.00
1776;BME280;885;42.626;23.200;2022-11-20T11:22:25;166484.47;;;11.74;100.00
1776;BME280;885;42.626;23.200;2022-11-20T11:24:56;166511.75;;;11.84;100.00
1776;BME280;885;42.626;23.200;2022-11-20T11:27:23;166534.97;;;11.92;100.00
1776;BME280;885;42.626;23.200;2022-11-20T11:29:49;166484.47;;;11.74;100.00
1776;BME280;885;42.626;23.200;2022-11-20T11:32:18;165788.66;;;11.91;100.00
1776;BME280;885;42.626;23.200;2022-11-20T11:34:58;165070.88;;;12.01;100.00
1776;BME280;885;42.626;23.200;2022-11-20T11:37:33;163996.06;;;12.16;100.00
1776;BME280;885;42.626;23.200;2022-11-20T11:40:04;164010.84;;;12.22;100.00
1776;BME280;885;42.626;23.200;2022-11-20T11:42:31;163977.25;;;12.09;100.00
1776;BME280;885;42.626;23.200;2022-11-20T11:44:59;163290.06;;;12.30;100.00
1776;BME280;885;42.626;23.200;2022-11-20T11:47:33;163295.41;;;12.32;100.00
1776;BME280;885;42.626;23.200;2022-11-20T11:50:14;162557.22;;;12.34;100.00
1776;BME280;885;42.626;23.200;2022-11-20T11:52:45;162888.94;;;12.19;100.00
1776;BME280;885;42.626;23.200;2022-11-20T11:55:18;162916.94;;;12.30;100.00
1776;BME280;885;42.626;23.200;2022-11-20T11:57:52;162186.84;;;12.35;100.00
1776;BME280;885;42.626;23.200;2022-11-20T12:00:22;161815.16;;;12.35;100.00
1776;BME280;885;42.626;23.200;2022-11-20T12:02:57;161821.78;;;12.37;100.00
1776;BME280;885;42.626;23.200;2022-11-20T12:05:34;161794.00;;;12.27;100.00
1776;BME280;885;42.626;23.200;2022-11-20T12:08:05;161783.41;;;12.23;100.00
1776;BME280;885;42.626;23.200;2022-11-20T12:10:43;160733.19;;;12.47;100.00
1776;BME280;885;42.626;23.200;2022-11-20T12:13:20;160698.97;;;12.34;100.00
1776;BME280;885;42.626;23.200;2022-11-20T12:15:48;161054.75;;;12.28;100.00
1776;BME280;885;42.626;23.200;2022-11-20T12:18:17;161049.50;;;12.26;100.00
1776;BME280;885;42.626;23.200;2022-11-20T12:20:51;160679.28;;;12.27;100.00
1776;BME280;885;42.626;23.200;2022-11-20T12:23:26;160677.97;;;12.26;100.00
1776;BME280;885;42.626;23.200;2022-11-20T12:25:58;160336.66;;;12.38;100.00
1776;BME280;885;42.626;23.200;2022-11-20T12:28:34;161035.00;;;12.21;100.00
1776;BME280;885;42.626;23.200;2022-11-20T12:31:20;160667.44;;;12.22;100.00
1776;BME280;885;42.626;23.200;2022-11-20T12:34:09;159283.31;;;12.61;100.00
1776;BME280;885;42.626;23.200;2022-11-20T12:36:44;160000.41;;;12.51;100.00
1776;BME280;885;42.626;23.200;2022-11-20T12:39:34;159665.34;;;12.65;100.00
1776;BME280;885;42.626;23.200;2022-11-20T12:42:11;160814.69;;;12.78;100.00
1776;BME280;885;42.626;23.200;2022-11-20T12:45:19;158994.88;;;12.94;100.00
1776;BME280;885;42.626;23.200;2022-11-20T12:48:07;158997.47;;;12.95;100.00
1776;BME280;885;42.626;23.200;2022-11-20T12:50:49;159040.38;;;13.11;100.00
1776;BME280;885;42.626;23.200;2022-11-20T12:53:27;160178.44;;;13.20;100.00
1776;BME280;885;42.626;23.200;2022-11-20T12:56:04;161293.41;;;13.19;100.00
1776;BME280;885;42.626;23.200;2022-11-20T12:58:45;162068.19;;;13.31;100.00
1776;BME280;885;42.626;23.200;2022-11-20T13:01:23;162467.03;;;13.41;100.00
1776;BME280;885;42.626;23.200;2022-11-20T13:04:11;162874.03;;;13.54;100.00
1776;BME280;885;42.626;23.200;2022-11-20T13:06:42;162513.53;;;13.59;100.00
1776;BME280;885;42.626;23.200;2022-11-20T13:09:12;162558.72;;;13.76;100.00
1776;BME280;885;42.626;23.200;2022-11-20T13:11:44;162597.25;;;13.90;100.00
1776;BME280;885;42.626;23.200;2022-11-20T13:14:26;162581.31;;;13.84;100.00
1776;BME280;885;42.626;23.200;2022-11-20T13:17:01;162605.19;;;13.93;100.00
1776;BME280;885;42.626;23.200;2022-11-20T13:19:31;162586.63;;;13.86;100.00
1776;BME280;885;42.626;23.200;2022-11-20T13:21:58;162610.50;;;13.95;100.00
1776;BME280;885;42.626;23.200;2022-11-20T13:24:28;162607.88;;;13.94;100.00
1776;BME280;885;42.626;23.200;2022-11-20T13:27:18;162211.31;;;13.85;100.00
1776;BME280;885;42.626;23.200;2022-11-20T13:30:00;162241.84;;;13.97;100.00
1776;BME280;885;42.626;23.200;2022-11-20T13:32:29;162651.72;;;14.11;100.00
1776;BME280;885;42.626;23.200;2022-11-20T13:34:59;162676.97;;;14.20;100.00
1776;BME280;885;42.626;23.200;2022-11-20T13:37:30;163065.81;;;14.26;100.00
1776;BME280;885;42.626;23.200;2022-11-20T13:40:13;163039.19;;;14.16;100.00